sensor_id;sensor_type;location;lat;lon;timestamp;P1;durP1;ratioP1;P2;durP2;ratioP2
67195;SDS011;54122;53.538;49.366;2023-05-07T00:02:00;8.68;;;2.45;;
67195;SDS011;54122;53.538;49.366;2023-05-07T00:04:26;5.90;;;1.95;;
67195;SDS011;54122;53.538;49.366;2023-05-07T00:06:53;5.53;;;1.67;;
67195;SDS011;54122;53.538;49.366;2023-05-07T00:09:21;3.83;;;1.75;;
67195;SDS011;54122;53.538;49.366;2023-05-07T00:11:47;6.65;;;1.90;;
67195;SDS011;54122;53.538;49.366;2023-05-07T00:14:13;4.25;;;1.77;;
67195;SDS011;54122;53.538;49.366;2023-05-07T00:16:39;6.32;;;1.70;;
67195;SDS011;54122;53.538;49.366;2023-05-07T00:19:05;3.92;;;2.03;;
67195;SDS011;54122;53.538;49.366;2023-05-07T00:21:31;3.80;;;1.65;;
67195;SDS011;54122;53.538;49.366;2023-05-07T00:23:59;3.25;;;1.63;;
67195;SDS011;54122;53.538;49.366;2023-05-07T00:26:25;2.70;;;1.77;;
67195;SDS011;54122;53.538;49.366;2023-05-07T00:28:51;3.28;;;1.75;;
67195;SDS011;54122;53.538;49.366;2023-05-07T00:31:17;5.88;;;2.00;;
67195;SDS011;54122;53.538;49.366;2023-05-07T00:33:43;3.20;;;1.63;;
67195;SDS011;54122;53.538;49.366;2023-05-07T00:36:10;2.33;;;1.63;;
67195;SDS011;54122;53.538;49.366;2023-05-07T00:38:36;2.28;;;1.75;;
67195;SDS011;54122;53.538;49.366;2023-05-07T00:41:02;7.55;;;1.45;;
67195;SDS011;54122;53.538;49.366;2023-05-07T00:43:28;2.92;;;1.92;;
67195;SDS011;54122;53.538;49.366;2023-05-07T00:45:55;5.45;;;2.10;;
67195;SDS011;54122;53.538;49.366;2023-05-07T00:48:21;4.68;;;2.25;;
67195;SDS011;54122;53.538;49.366;2023-05-07T00:50:49;4.45;;;1.85;;
67195;SDS011;54122;53.538;49.366;2023-05-07T00:53:16;7.05;;;1.63;;
67195;SDS011;54122;53.538;49.366;2023-05-07T00:55:42;7.65;;;2.08;;
67195;SDS011;54122;53.538;49.366;2023-05-07T00:58:09;6.20;;;2.10;;
67195;SDS011;54122;53.538;49.366;2023-05-07T01:00:35;9.45;;;2.05;;
67195;SDS011;54122;53.538;49.366;2023-05-07T01:03:01;3.67;;;1.70;;
67195;SDS011;54122;53.538;49.366;2023-05-07T01:05:28;5.85;;;1.90;;
67195;SDS011;54122;53.538;49.366;2023-05-07T01:07:56;7.60;;;1.90;;
67195;SDS011;54122;53.538;49.366;2023-05-07T01:10:23;2.90;;;1.73;;
67195;SDS011;54122;53.538;49.366;2023-05-07T01:12:50;2.97;;;1.83;;
67195;SDS011;54122;53.538;49.366;2023-05-07T01:15:17;2.83;;;1.73;;
67195;SDS011;54122;53.538;49.366;2023-05-07T01:17:43;2.60;;;1.42;;
67195;SDS011;54122;53.538;49.366;2023-05-07T01:20:10;3.67;;;1.92;;
67195;SDS011;54122;53.538;49.366;2023-05-07T01:22:37;4.30;;;2.22;;
67195;SDS011;54122;53.538;49.366;2023-05-07T01:25:04;2.50;;;1.75;;
67195;SDS011;54122;53.538;49.366;2023-05-07T01:27:32;4.10;;;1.92;;
67195;SDS011;54122;53.538;49.366;2023-05-07T01:30:00;2.30;;;1.60;;
67195;SDS011;54122;53.538;49.366;2023-05-07T01:32:35;9.18;;;1.70;;
67195;SDS011;54122;53.538;49.366;2023-05-07T01:35:09;4.95;;;2.00;;
67195;SDS011;54122;53.538;49.366;2023-05-07T01:37:37;3.13;;;1.52;;
67195;SDS011;54122;53.538;49.366;2023-05-07T01:40:05;3.20;;;1.50;;
67195;SDS011;54122;53.538;49.366;2023-05-07T01:42:32;6.65;;;1.60;;
67195;SDS011;54122;53.538;49.366;2023-05-07T01:44:59;6.15;;;1.50;;
67195;SDS011;54122;53.538;49.366;2023-05-07T01:47:25;8.18;;;2.00;;
67195;SDS011;54122;53.538;49.366;2023-05-07T01:49:52;4.22;;;1.60;;
67195;SDS011;54122;53.538;49.366;2023-05-07T01:52:19;3.63;;;1.63;;
67195;SDS011;54122;53.538;49.366;2023-05-07T01:54:45;4.43;;;1.33;;
67195;SDS011;54122;53.538;49.366;2023-05-07T01:57:11;3.40;;;1.60;;
67195;SDS011;54122;53.538;49.366;2023-05-07T01:59:38;5.60;;;1.88;;
67195;SDS011;54122;53.538;49.366;2023-05-07T02:02:04;6.75;;;2.15;;
67195;SDS011;54122;53.538;49.366;2023-05-07T02:04:30;4.20;;;1.48;;
67195;SDS011;54122;53.538;49.366;2023-05-07T02:06:57;8.75;;;1.60;;
67195;SDS011;54122;53.538;49.366;2023-05-07T02:09:23;4.10;;;1.55;;
67195;SDS011;54122;53.538;49.366;2023-05-07T02:11:49;2.13;;;1.17;;
67195;SDS011;54122;53.538;49.366;2023-05-07T02:14:15;2.38;;;1.30;;
67195;SDS011;54122;53.538;49.366;2023-05-07T02:16:41;4.65;;;1.10;;
67195;SDS011;54122;53.538;49.366;2023-05-07T02:19:07;3.05;;;1.17;;
67195;SDS011;54122;53.538;49.366;2023-05-07T02:21:33;5.10;;;1.10;;
67195;SDS011;54122;53.538;49.366;2023-05-07T02:24:01;5.95;;;1.48;;
67195;SDS011;54122;53.538;49.366;2023-05-07T02:26:27;3.78;;;1.20;;
67195;SDS011;54122;53.538;49.366;2023-05-07T02:28:53;2.55;;;1.33;;
67195;SDS011;54122;53.538;49.366;2023-05-07T02:31:20;6.68;;;1.23;;
67195;SDS011;54122;53.538;49.366;2023-05-07T02:33:46;2.22;;;0.95;;
67195;SDS011;54122;53.538;49.366;2023-05-07T02:36:12;6.25;;;1.10;;
67195;SDS011;54122;53.538;49.366;2023-05-07T02:38:38;16.38;;;1.48;;
67195;SDS011;54122;53.538;49.366;2023-05-07T02:41:05;5.40;;;1.08;;
67195;SDS011;54122;53.538;49.366;2023-05-07T02:43:31;6.40;;;1.23;;
67195;SDS011;54122;53.538;49.366;2023-05-07T02:46:03;3.35;;;1.10;;
67195;SDS011;54122;53.538;49.366;2023-05-07T02:48:31;5.35;;;1.00;;
67195;SDS011;54122;53.538;49.366;2023-05-07T02:50:57;17.55;;;1.30;;
67195;SDS011;54122;53.538;49.366;2023-05-07T02:53:24;3.67;;;1.25;;
67195;SDS011;54122;53.538;49.366;2023-05-07T02:55:52;2.13;;;1.33;;
67195;SDS011;54122;53.538;49.366;2023-05-07T02:58:20;5.32;;;1.10;;
67195;SDS011;54122;53.538;49.366;2023-05-07T03:00:46;5.82;;;1.45;;
67195;SDS011;54122;53.538;49.366;2023-05-07T03:03:13;4.32;;;1.08;;
67195;SDS011;54122;53.538;49.366;2023-05-07T03:05:39;3.30;;;1.15;;
67195;SDS011;54122;53.538;49.366;2023-05-07T03:08:06;7.47;;;1.10;;
67195;SDS011;54122;53.538;49.366;2023-05-07T03:10:33;6.15;;;1.20;;
67195;SDS011;54122;53.538;49.366;2023-05-07T03:13:00;3.42;;;0.95;;
67195;SDS011;54122;53.538;49.366;2023-05-07T03:15:26;2.30;;;1.17;;
67195;SDS011;54122;53.538;49.366;2023-05-07T03:17:53;8.88;;;1.02;;
67195;SDS011;54122;53.538;49.366;2023-05-07T03:20:19;1.20;;;0.85;;
67195;SDS011;54122;53.538;49.366;2023-05-07T03:22:45;2.25;;;0.90;;
67195;SDS011;54122;53.538;49.366;2023-05-07T03:25:11;1.60;;;0.88;;
67195;SDS011;54122;53.538;49.366;2023-05-07T03:27:38;3.63;;;0.90;;
67195;SDS011;54122;53.538;49.366;2023-05-07T03:30:04;5.85;;;0.95;;
67195;SDS011;54122;53.538;49.366;2023-05-07T03:32:32;4.70;;;1.10;;
67195;SDS011;54122;53.538;49.366;2023-05-07T03:34:58;9.30;;;1.17;;
67195;SDS011;54122;53.538;49.366;2023-05-07T03:37:25;2.75;;;1.10;;
67195;SDS011;54122;53.538;49.366;2023-05-07T03:39:51;4.82;;;0.90;;
67195;SDS011;54122;53.538;49.366;2023-05-07T03:42:17;3.83;;;0.75;;
67195;SDS011;54122;53.538;49.366;2023-05-07T03:44:43;3.13;;;0.90;;
67195;SDS011;54122;53.538;49.366;2023-05-07T03:47:09;2.33;;;0.88;;
67195;SDS011;54122;53.538;49.366;2023-05-07T03:49:36;1.58;;;0.70;;
67195;SDS011;54122;53.538;49.366;2023-05-07T03:52:02;6.10;;;0.80;;
67195;SDS011;54122;53.538;49.366;2023-05-07T03:54:29;6.03;;;0.68;;
67195;SDS011;54122;53.538;49.366;2023-05-07T03:56:56;1.63;;;0.60;;
67195;SDS011;54122;53.538;49.366;2023-05-07T03:59:22;2.85;;;0.55;;
67195;SDS011;54122;53.538;49.366;2023-05-07T04:01:48;1.90;;;0.70;;
67195;SDS011;54122;53.538;49.366;2023-05-07T04:04:15;6.72;;;0.85;;
67195;SDS011;54122;53.538;49.366;2023-05-07T04:06:41;1.35;;;0.63;;
67195;SDS011;54122;53.538;49.366;2023-05-07T04:09:08;7.10;;;0.70;;
67195;SDS011;54122;53.538;49.366;2023-05-07T04:11:35;4.88;;;0.70;;
67195;SDS011;54122;53.538;49.366;2023-05-07T04:14:01;3.22;;;0.77;;
67195;SDS011;54122;53.538;49.366;2023-05-07T04:16:27;7.38;;;0.80;;
67195;SDS011;54122;53.538;49.366;2023-05-07T04:18:53;1.63;;;0.82;;
67195;SDS011;54122;53.538;49.366;2023-05-07T04:21:20;0.98;;;0.50;;
67195;SDS011;54122;53.538;49.366;2023-05-07T04:23:47;1.20;;;0.60;;
67195;SDS011;54122;53.538;49.366;2023-05-07T04:26:14;2.45;;;0.70;;
67195;SDS011;54122;53.538;49.366;2023-05-07T04:28:41;1.85;;;0.75;;
67195;SDS011;54122;53.538;49.366;2023-05-07T04:31:07;6.65;;;0.60;;
67195;SDS011;54122;53.538;49.366;2023-05-07T04:33:34;3.08;;;0.70;;
67195;SDS011;54122;53.538;49.366;2023-05-07T04:36:03;3.90;;;0.63;;
67195;SDS011;54122;53.538;49.366;2023-05-07T04:38:30;8.35;;;0.93;;
67195;SDS011;54122;53.538;49.366;2023-05-07T04:40:57;10.60;;;0.80;;
67195;SDS011;54122;53.538;49.366;2023-05-07T04:43:28;1.80;;;0.65;;
67195;SDS011;54122;53.538;49.366;2023-05-07T04:45:55;6.82;;;0.80;;
67195;SDS011;54122;53.538;49.366;2023-05-07T04:48:21;3.92;;;0.80;;
67195;SDS011;54122;53.538;49.366;2023-05-07T04:50:48;2.05;;;0.63;;
67195;SDS011;54122;53.538;49.366;2023-05-07T04:53:17;5.78;;;0.77;;
67195;SDS011;54122;53.538;49.366;2023-05-07T04:55:44;1.35;;;0.50;;
67195;SDS011;54122;53.538;49.366;2023-05-07T04:58:13;2.60;;;0.70;;
67195;SDS011;54122;53.538;49.366;2023-05-07T05:00:39;0.85;;;0.52;;
67195;SDS011;54122;53.538;49.366;2023-05-07T05:03:06;5.45;;;0.50;;
67195;SDS011;54122;53.538;49.366;2023-05-07T05:05:32;8.57;;;0.52;;
67195;SDS011;54122;53.538;49.366;2023-05-07T05:07:59;1.95;;;0.40;;
67195;SDS011;54122;53.538;49.366;2023-05-07T05:10:25;5.97;;;0.70;;
67195;SDS011;54122;53.538;49.366;2023-05-07T05:12:51;3.60;;;0.65;;
67195;SDS011;54122;53.538;49.366;2023-05-07T05:15:18;1.23;;;0.50;;
67195;SDS011;54122;53.538;49.366;2023-05-07T05:17:44;6.65;;;0.52;;
67195;SDS011;54122;53.538;49.366;2023-05-07T05:20:10;5.90;;;0.50;;
67195;SDS011;54122;53.538;49.366;2023-05-07T05:22:37;1.33;;;0.40;;
67195;SDS011;54122;53.538;49.366;2023-05-07T05:25:03;4.03;;;0.55;;
67195;SDS011;54122;53.538;49.366;2023-05-07T05:27:30;1.55;;;0.70;;
67195;SDS011;54122;53.538;49.366;2023-05-07T05:29:56;6.43;;;1.17;;
67195;SDS011;54122;53.538;49.366;2023-05-07T05:32:22;14.05;;;1.48;;
67195;SDS011;54122;53.538;49.366;2023-05-07T05:34:48;1.35;;;0.60;;
67195;SDS011;54122;53.538;49.366;2023-05-07T05:37:15;2.15;;;0.55;;
67195;SDS011;54122;53.538;49.366;2023-05-07T05:39:41;6.13;;;0.60;;
67195;SDS011;54122;53.538;49.366;2023-05-07T05:42:08;7.85;;;0.60;;
67195;SDS011;54122;53.538;49.366;2023-05-07T05:44:34;1.23;;;0.70;;
67195;SDS011;54122;53.538;49.366;2023-05-07T05:47:00;1.38;;;0.40;;
67195;SDS011;54122;53.538;49.366;2023-05-07T05:49:26;3.03;;;0.40;;
67195;SDS011;54122;53.538;49.366;2023-05-07T05:51:52;0.95;;;0.50;;
67195;SDS011;54122;53.538;49.366;2023-05-07T05:54:19;1.33;;;0.47;;
67195;SDS011;54122;53.538;49.366;2023-05-07T05:56:45;3.30;;;0.70;;
67195;SDS011;54122;53.538;49.366;2023-05-07T05:59:12;2.05;;;0.60;;
67195;SDS011;54122;53.538;49.366;2023-05-07T06:01:38;3.08;;;0.70;;
67195;SDS011;54122;53.538;49.366;2023-05-07T06:04:04;0.30;;;0.30;;
67195;SDS011;54122;53.538;49.366;2023-05-07T06:06:31;1.17;;;0.70;;
67195;SDS011;54122;53.538;49.366;2023-05-07T06:08:57;1.52;;;0.57;;
67195;SDS011;54122;53.538;49.366;2023-05-07T06:11:23;0.65;;;0.40;;
67195;SDS011;54122;53.538;49.366;2023-05-07T06:13:50;0.35;;;0.28;;
67195;SDS011;54122;53.538;49.366;2023-05-07T06:16:17;1.55;;;0.47;;
67195;SDS011;54122;53.538;49.366;2023-05-07T06:18:43;0.90;;;0.40;;
67195;SDS011;54122;53.538;49.366;2023-05-07T06:21:11;4.60;;;0.50;;
67195;SDS011;54122;53.538;49.366;2023-05-07T06:23:38;2.88;;;0.50;;
67195;SDS011;54122;53.538;49.366;2023-05-07T06:26:06;8.23;;;0.88;;
67195;SDS011;54122;53.538;49.366;2023-05-07T06:31:37;3.67;;;0.55;;
67195;SDS011;54122;53.538;49.366;2023-05-07T06:34:03;4.22;;;0.50;;
67195;SDS011;54122;53.538;49.366;2023-05-07T06:36:30;1.00;;;0.52;;
67195;SDS011;54122;53.538;49.366;2023-05-07T06:38:57;1.55;;;0.63;;
67195;SDS011;54122;53.538;49.366;2023-05-07T06:41:23;2.20;;;0.50;;
67195;SDS011;54122;53.538;49.366;2023-05-07T06:43:51;1.50;;;0.40;;
67195;SDS011;54122;53.538;49.366;2023-05-07T06:46:17;0.50;;;0.40;;
67195;SDS011;54122;53.538;49.366;2023-05-07T06:49:20;5.20;;;0.40;;
67195;SDS011;54122;53.538;49.366;2023-05-07T06:51:47;2.05;;;0.40;;
67195;SDS011;54122;53.538;49.366;2023-05-07T06:54:13;5.82;;;0.50;;
67195;SDS011;54122;53.538;49.366;2023-05-07T06:56:39;4.90;;;0.40;;
67195;SDS011;54122;53.538;49.366;2023-05-07T06:59:06;6.95;;;0.35;;
67195;SDS011;54122;53.538;49.366;2023-05-07T07:01:32;9.77;;;0.50;;
67195;SDS011;54122;53.538;49.366;2023-05-07T07:03:58;6.93;;;0.43;;
67195;SDS011;54122;53.538;49.366;2023-05-07T07:06:25;1.50;;;0.20;;
67195;SDS011;54122;53.538;49.366;2023-05-07T07:08:52;3.08;;;0.30;;
67195;SDS011;54122;53.538;49.366;2023-05-07T07:11:18;1.05;;;0.47;;
67195;SDS011;54122;53.538;49.366;2023-05-07T07:13:44;4.45;;;0.85;;
67195;SDS011;54122;53.538;49.366;2023-05-07T07:16:11;0.30;;;0.20;;
67195;SDS011;54122;53.538;49.366;2023-05-07T07:18:37;2.88;;;0.50;;
67195;SDS011;54122;53.538;49.366;2023-05-07T07:21:03;1.38;;;0.47;;
67195;SDS011;54122;53.538;49.366;2023-05-07T07:23:29;2.97;;;0.50;;
67195;SDS011;54122;53.538;49.366;2023-05-07T07:25:56;1.65;;;0.20;;
67195;SDS011;54122;53.538;49.366;2023-05-07T07:28:22;2.45;;;0.82;;
67195;SDS011;54122;53.538;49.366;2023-05-07T07:30:48;27.98;;;0.93;;
67195;SDS011;54122;53.538;49.366;2023-05-07T07:36:00;6.78;;;0.55;;
67195;SDS011;54122;53.538;49.366;2023-05-07T07:38:26;0.60;;;0.40;;
67195;SDS011;54122;53.538;49.366;2023-05-07T07:40:52;0.73;;;0.30;;
67195;SDS011;54122;53.538;49.366;2023-05-07T07:43:18;1.95;;;0.40;;
67195;SDS011;54122;53.538;49.366;2023-05-07T07:45:44;0.43;;;0.30;;
67195;SDS011;54122;53.538;49.366;2023-05-07T07:48:11;0.82;;;0.40;;
67195;SDS011;54122;53.538;49.366;2023-05-07T07:50:38;0.85;;;0.40;;
67195;SDS011;54122;53.538;49.366;2023-05-07T07:53:04;1.15;;;0.32;;
67195;SDS011;54122;53.538;49.366;2023-05-07T07:55:30;1.10;;;0.40;;
67195;SDS011;54122;53.538;49.366;2023-05-07T07:57:57;1.33;;;0.40;;
67195;SDS011;54122;53.538;49.366;2023-05-07T08:00:23;1.98;;;0.50;;
67195;SDS011;54122;53.538;49.366;2023-05-07T08:02:50;2.15;;;0.43;;
67195;SDS011;54122;53.538;49.366;2023-05-07T08:05:16;2.20;;;0.20;;
67195;SDS011;54122;53.538;49.366;2023-05-07T08:07:42;5.78;;;0.63;;
67195;SDS011;54122;53.538;49.366;2023-05-07T08:10:09;2.67;;;0.40;;
67195;SDS011;54122;53.538;49.366;2023-05-07T08:12:35;1.40;;;0.43;;
67195;SDS011;54122;53.538;49.366;2023-05-07T08:15:02;0.68;;;0.38;;
67195;SDS011;54122;53.538;49.366;2023-05-07T08:17:28;0.68;;;0.50;;
67195;SDS011;54122;53.538;49.366;2023-05-07T08:20:13;0.40;;;0.20;;
67195;SDS011;54122;53.538;49.366;2023-05-07T08:22:39;0.50;;;0.30;;
67195;SDS011;54122;53.538;49.366;2023-05-07T08:25:06;4.35;;;0.30;;
67195;SDS011;54122;53.538;49.366;2023-05-07T08:27:51;1.30;;;0.30;;
67195;SDS011;54122;53.538;49.366;2023-05-07T08:30:17;0.93;;;0.40;;
67195;SDS011;54122;53.538;49.366;2023-05-07T08:32:43;0.30;;;0.30;;
67195;SDS011;54122;53.538;49.366;2023-05-07T08:35:09;4.65;;;0.55;;
67195;SDS011;54122;53.538;49.366;2023-05-07T08:38:13;1.25;;;0.40;;
67195;SDS011;54122;53.538;49.366;2023-05-07T08:40:39;2.05;;;0.68;;
67195;SDS011;54122;53.538;49.366;2023-05-07T08:43:08;6.47;;;0.60;;
67195;SDS011;54122;53.538;49.366;2023-05-07T08:45:56;1.40;;;0.30;;
67195;SDS011;54122;53.538;49.366;2023-05-07T08:48:30;2.38;;;0.45;;
67195;SDS011;54122;53.538;49.366;2023-05-07T08:50:58;1.83;;;0.30;;
67195;SDS011;54122;53.538;49.366;2023-05-07T08:53:24;2.30;;;0.40;;
67195;SDS011;54122;53.538;49.366;2023-05-07T08:55:51;0.88;;;0.50;;
67195;SDS011;54122;53.538;49.366;2023-05-07T08:58:18;3.22;;;0.47;;
67195;SDS011;54122;53.538;49.366;2023-05-07T09:00:44;4.47;;;0.40;;
67195;SDS011;54122;53.538;49.366;2023-05-07T09:03:30;3.30;;;0.50;;
67195;SDS011;54122;53.538;49.366;2023-05-07T09:05:57;0.45;;;0.38;;
67195;SDS011;54122;53.538;49.366;2023-05-07T09:08:26;0.93;;;0.50;;
67195;SDS011;54122;53.538;49.366;2023-05-07T09:10:53;1.23;;;0.50;;
67195;SDS011;54122;53.538;49.366;2023-05-07T09:13:20;1.05;;;0.43;;
67195;SDS011;54122;53.538;49.366;2023-05-07T09:16:11;2.85;;;1.00;;
67195;SDS011;54122;53.538;49.366;2023-05-07T09:18:41;4.38;;;0.70;;
67195;SDS011;54122;53.538;49.366;2023-05-07T09:21:14;2.65;;;1.25;;
67195;SDS011;54122;53.538;49.366;2023-05-07T09:26:45;7.05;;;0.70;;
67195;SDS011;54122;53.538;49.366;2023-05-07T09:29:11;4.88;;;1.20;;
67195;SDS011;54122;53.538;49.366;2023-05-07T09:37:07;3.38;;;0.75;;
67195;SDS011;54122;53.538;49.366;2023-05-07T09:39:44;1.05;;;0.50;;
67195;SDS011;54122;53.538;49.366;2023-05-07T09:42:12;10.35;;;1.23;;
67195;SDS011;54122;53.538;49.366;2023-05-07T09:44:58;3.15;;;1.70;;
67195;SDS011;54122;53.538;49.366;2023-05-07T09:47:25;2.20;;;1.70;;
67195;SDS011;54122;53.538;49.366;2023-05-07T09:50:13;4.75;;;0.57;;
67195;SDS011;54122;53.538;49.366;2023-05-07T09:52:41;2.40;;;1.10;;
67195;SDS011;54122;53.538;49.366;2023-05-07T09:55:08;1.60;;;0.50;;
67195;SDS011;54122;53.538;49.366;2023-05-07T09:57:36;0.88;;;0.47;;
67195;SDS011;54122;53.538;49.366;2023-05-07T10:00:04;6.80;;;1.08;;
67195;SDS011;54122;53.538;49.366;2023-05-07T10:02:34;0.52;;;0.50;;
67195;SDS011;54122;53.538;49.366;2023-05-07T10:05:02;3.90;;;1.20;;
67195;SDS011;54122;53.538;49.366;2023-05-07T10:07:29;4.40;;;2.15;;
67195;SDS011;54122;53.538;49.366;2023-05-07T10:09:56;4.38;;;1.00;;
67195;SDS011;54122;53.538;49.366;2023-05-07T10:15:10;3.42;;;1.02;;
67195;SDS011;54122;53.538;49.366;2023-05-07T10:17:37;3.15;;;1.35;;
67195;SDS011;54122;53.538;49.366;2023-05-07T10:20:05;3.58;;;1.30;;
67195;SDS011;54122;53.538;49.366;2023-05-07T10:22:33;2.25;;;1.20;;
67195;SDS011;54122;53.538;49.366;2023-05-07T10:25:06;3.63;;;0.63;;
67195;SDS011;54122;53.538;49.366;2023-05-07T10:27:40;1.95;;;0.55;;
67195;SDS011;54122;53.538;49.366;2023-05-07T10:30:21;14.02;;;0.98;;
67195;SDS011;54122;53.538;49.366;2023-05-07T10:33:27;2.13;;;0.90;;
67195;SDS011;54122;53.538;49.366;2023-05-07T10:35:57;4.03;;;2.35;;
67195;SDS011;54122;53.538;49.366;2023-05-07T10:38:25;62.75;;;3.55;;
67195;SDS011;54122;53.538;49.366;2023-05-07T10:40:53;1.60;;;0.50;;
67195;SDS011;54122;53.538;49.366;2023-05-07T10:43:19;2.50;;;1.30;;
67195;SDS011;54122;53.538;49.366;2023-05-07T10:46:17;2.42;;;0.50;;
67195;SDS011;54122;53.538;49.366;2023-05-07T10:57:44;1.92;;;1.05;;
67195;SDS011;54122;53.538;49.366;2023-05-07T11:08:12;3.08;;;1.35;;
67195;SDS011;54122;53.538;49.366;2023-05-07T11:10:49;3.72;;;1.00;;
67195;SDS011;54122;53.538;49.366;2023-05-07T11:13:15;6.95;;;2.17;;
67195;SDS011;54122;53.538;49.366;2023-05-07T11:15:43;2.78;;;1.48;;
67195;SDS011;54122;53.538;49.366;2023-05-07T11:18:11;4.93;;;1.10;;
67195;SDS011;54122;53.538;49.366;2023-05-07T11:26:06;2.15;;;0.73;;
67195;SDS011;54122;53.538;49.366;2023-05-07T11:28:37;5.68;;;1.90;;
67195;SDS011;54122;53.538;49.366;2023-05-07T11:31:04;1.48;;;0.82;;
67195;SDS011;54122;53.538;49.366;2023-05-07T11:33:31;3.50;;;0.70;;
67195;SDS011;54122;53.538;49.366;2023-05-07T11:35:57;7.35;;;0.57;;
67195;SDS011;54122;53.538;49.366;2023-05-07T11:38:25;3.90;;;0.47;;
67195;SDS011;54122;53.538;49.366;2023-05-07T11:40:53;1.95;;;0.60;;
67195;SDS011;54122;53.538;49.366;2023-05-07T11:43:40;3.83;;;0.50;;
67195;SDS011;54122;53.538;49.366;2023-05-07T11:46:21;8.27;;;0.65;;
67195;SDS011;54122;53.538;49.366;2023-05-07T11:48:47;2.28;;;0.30;;
67195;SDS011;54122;53.538;49.366;2023-05-07T11:57:02;4.53;;;0.50;;
67195;SDS011;54122;53.538;49.366;2023-05-07T11:59:29;0.50;;;0.40;;
67195;SDS011;54122;53.538;49.366;2023-05-07T12:01:58;6.43;;;0.63;;
67195;SDS011;54122;53.538;49.366;2023-05-07T12:04:24;4.25;;;0.88;;
67195;SDS011;54122;53.538;49.366;2023-05-07T12:06:54;1.33;;;0.60;;
67195;SDS011;54122;53.538;49.366;2023-05-07T12:09:21;25.73;;;0.75;;
67195;SDS011;54122;53.538;49.366;2023-05-07T12:11:48;2.25;;;0.60;;
67195;SDS011;54122;53.538;49.366;2023-05-07T12:14:37;7.22;;;0.60;;
67195;SDS011;54122;53.538;49.366;2023-05-07T12:17:07;1.25;;;0.57;;
67195;SDS011;54122;53.538;49.366;2023-05-07T12:19:35;0.47;;;0.28;;
67195;SDS011;54122;53.538;49.366;2023-05-07T12:22:03;0.60;;;0.40;;
67195;SDS011;54122;53.538;49.366;2023-05-07T12:24:48;4.85;;;0.50;;
67195;SDS011;54122;53.538;49.366;2023-05-07T12:27:21;2.30;;;0.80;;
67195;SDS011;54122;53.538;49.366;2023-05-07T12:30:08;0.73;;;0.35;;
67195;SDS011;54122;53.538;49.366;2023-05-07T12:32:36;0.88;;;0.50;;
67195;SDS011;54122;53.538;49.366;2023-05-07T12:35:02;0.80;;;0.57;;
67195;SDS011;54122;53.538;49.366;2023-05-07T12:37:28;0.88;;;0.40;;
67195;SDS011;54122;53.538;49.366;2023-05-07T12:40:05;0.95;;;0.40;;
67195;SDS011;54122;53.538;49.366;2023-05-07T12:42:33;1.08;;;0.47;;
67195;SDS011;54122;53.538;49.366;2023-05-07T12:45:11;2.30;;;0.50;;
67195;SDS011;54122;53.538;49.366;2023-05-07T12:50:30;2.15;;;0.68;;
67195;SDS011;54122;53.538;49.366;2023-05-07T12:53:15;1.52;;;0.50;;
67195;SDS011;54122;53.538;49.366;2023-05-07T12:55:49;1.13;;;0.32;;
67195;SDS011;54122;53.538;49.366;2023-05-07T12:58:17;5.22;;;0.50;;
67195;SDS011;54122;53.538;49.366;2023-05-07T13:00:46;2.47;;;0.43;;
67195;SDS011;54122;53.538;49.366;2023-05-07T13:03:20;3.03;;;0.63;;
67195;SDS011;54122;53.538;49.366;2023-05-07T13:06:01;0.50;;;0.32;;
67195;SDS011;54122;53.538;49.366;2023-05-07T13:08:37;1.70;;;0.40;;
67195;SDS011;54122;53.538;49.366;2023-05-07T13:11:13;5.47;;;0.40;;
67195;SDS011;54122;53.538;49.366;2023-05-07T13:13:40;3.03;;;0.60;;
67195;SDS011;54122;53.538;49.366;2023-05-07T13:16:08;4.32;;;0.40;;
67195;SDS011;54122;53.538;49.366;2023-05-07T13:18:36;1.15;;;0.40;;
67195;SDS011;54122;53.538;49.366;2023-05-07T13:21:03;3.03;;;0.40;;
67195;SDS011;54122;53.538;49.366;2023-05-07T13:26:33;1.75;;;0.40;;
67195;SDS011;54122;53.538;49.366;2023-05-07T13:28:59;2.95;;;1.23;;
67195;SDS011;54122;53.538;49.366;2023-05-07T13:31:25;7.80;;;0.50;;
67195;SDS011;54122;53.538;49.366;2023-05-07T13:33:51;1.58;;;0.57;;
67195;SDS011;54122;53.538;49.366;2023-05-07T13:36:18;1.45;;;0.60;;
67195;SDS011;54122;53.538;49.366;2023-05-07T13:38:44;2.33;;;0.77;;
67195;SDS011;54122;53.538;49.366;2023-05-07T13:41:10;1.58;;;0.50;;
67195;SDS011;54122;53.538;49.366;2023-05-07T13:43:38;3.00;;;1.10;;
67195;SDS011;54122;53.538;49.366;2023-05-07T13:46:04;1.35;;;0.70;;
67195;SDS011;54122;53.538;49.366;2023-05-07T13:48:30;1.63;;;0.40;;
67195;SDS011;54122;53.538;49.366;2023-05-07T13:50:56;4.45;;;0.68;;
67195;SDS011;54122;53.538;49.366;2023-05-07T13:53:22;1.70;;;0.60;;
67195;SDS011;54122;53.538;49.366;2023-05-07T13:55:48;1.30;;;0.60;;
67195;SDS011;54122;53.538;49.366;2023-05-07T13:58:33;2.25;;;0.60;;
67195;SDS011;54122;53.538;49.366;2023-05-07T14:00:59;3.20;;;0.43;;
67195;SDS011;54122;53.538;49.366;2023-05-07T14:03:25;1.20;;;0.70;;
67195;SDS011;54122;53.538;49.366;2023-05-07T14:06:29;1.10;;;0.40;;
67195;SDS011;54122;53.538;49.366;2023-05-07T14:08:55;5.40;;;0.90;;
67195;SDS011;54122;53.538;49.366;2023-05-07T14:11:23;4.38;;;0.60;;
67195;SDS011;54122;53.538;49.366;2023-05-07T14:13:49;1.58;;;0.57;;
67195;SDS011;54122;53.538;49.366;2023-05-07T14:16:15;5.75;;;0.60;;
67195;SDS011;54122;53.538;49.366;2023-05-07T14:18:42;1.88;;;0.70;;
67195;SDS011;54122;53.538;49.366;2023-05-07T14:21:08;1.90;;;0.80;;
67195;SDS011;54122;53.538;49.366;2023-05-07T14:26:22;0.65;;;0.30;;
67195;SDS011;54122;53.538;49.366;2023-05-07T14:28:48;1.30;;;0.50;;
67195;SDS011;54122;53.538;49.366;2023-05-07T14:31:14;1.15;;;0.77;;
67195;SDS011;54122;53.538;49.366;2023-05-07T14:33:41;2.55;;;0.70;;
67195;SDS011;54122;53.538;49.366;2023-05-07T14:36:07;0.88;;;0.50;;
67195;SDS011;54122;53.538;49.366;2023-05-07T14:38:33;1.85;;;0.55;;
67195;SDS011;54122;53.538;49.366;2023-05-07T14:40:59;0.90;;;0.40;;
67195;SDS011;54122;53.538;49.366;2023-05-07T14:43:44;3.22;;;0.60;;
67195;SDS011;54122;53.538;49.366;2023-05-07T14:46:29;4.88;;;0.70;;
67195;SDS011;54122;53.538;49.366;2023-05-07T14:48:56;8.30;;;1.00;;
67195;SDS011;54122;53.538;49.366;2023-05-07T14:51:22;1.40;;;0.70;;
67195;SDS011;54122;53.538;49.366;2023-05-07T14:56:52;0.88;;;0.40;;
67195;SDS011;54122;53.538;49.366;2023-05-07T14:59:19;1.42;;;0.68;;
67195;SDS011;54122;53.538;49.366;2023-05-07T15:01:47;0.68;;;0.40;;
67195;SDS011;54122;53.538;49.366;2023-05-07T15:04:13;1.80;;;0.55;;
67195;SDS011;54122;53.538;49.366;2023-05-07T15:06:39;2.55;;;0.80;;
67195;SDS011;54122;53.538;49.366;2023-05-07T15:09:06;5.30;;;0.47;;
67195;SDS011;54122;53.538;49.366;2023-05-07T15:11:33;4.63;;;0.80;;
67195;SDS011;54122;53.538;49.366;2023-05-07T15:13:59;3.53;;;0.57;;
67195;SDS011;54122;53.538;49.366;2023-05-07T15:16:44;0.88;;;0.35;;
67195;SDS011;54122;53.538;49.366;2023-05-07T15:19:11;2.00;;;0.80;;
67195;SDS011;54122;53.538;49.366;2023-05-07T15:21:37;2.63;;;0.93;;
67195;SDS011;54122;53.538;49.366;2023-05-07T15:24:03;0.82;;;0.50;;
67195;SDS011;54122;53.538;49.366;2023-05-07T15:26:30;7.72;;;0.70;;
67195;SDS011;54122;53.538;49.366;2023-05-07T15:29:15;0.82;;;0.47;;
67195;SDS011;54122;53.538;49.366;2023-05-07T15:32:00;0.60;;;0.50;;
67195;SDS011;54122;53.538;49.366;2023-05-07T15:34:26;1.02;;;0.50;;
67195;SDS011;54122;53.538;49.366;2023-05-07T15:36:52;1.75;;;0.52;;
67195;SDS011;54122;53.538;49.366;2023-05-07T15:39:20;2.35;;;0.40;;